This is the latest recevied weather packets stored in our database for station/object DB0OHA-13. If no packets are shown the sender has not sent any weather packets the latest 1 day(s).
| Time | Temp. | Humidity | Pressure | Rain* | Wind** | Luminosity | Snow |
|---|---|---|---|---|---|---|---|
| 1778082670 | 14.44° C | 1% | 1004.5 hPa | 0 mm | - | 178 W/m² | - |
| 1778080870 | 15° C | 1% | 1004.6 hPa | 0 mm | - | 266 W/m² | - |
| 1778078469 | 16.11° C | 1% | 1004.6 hPa | 0 mm | - | 468 W/m² | - |
| 1778073073 | 14.44° C | 1% | 1004.6 hPa | 4.57 mm | - | 502 W/m² | - |
| 1778071873 | 13.33° C | 1% | 1004.6 hPa | 4.32 mm | - | 245 W/m² | - |
| 1778068873 | 13.33° C | 1% | 1004.4 hPa | 4.83 mm | - | 107 W/m² | - |
| 1778068273 | 13.33° C | 1% | 1004.4 hPa | 5.08 mm | - | 176 W/m² | - |
| 1778067072 | 13.33° C | 1% | 1004.3 hPa | 3.3 mm | - | 176 W/m² | - |
| 1778066472 | 13.33° C | 1% | 1004.3 hPa | 2.29 mm | - | 79 W/m² | - |
| 1778064672 | 13.33° C | 1% | 1004.2 hPa | 0 mm | - | 122 W/m² | - |
| 1778060471 | 13.33° C | 1% | 1004.2 hPa | 0.25 mm | - | 225 W/m² | - |
| 1778059871 | 12.78° C | 1% | 1004.1 hPa | 0.25 mm | - | 167 W/m² | - |
| 1778059271 | 13.33° C | 1% | 1004 hPa | 0.25 mm | - | 328 W/m² | - |
| 1778058671 | 12.78° C | 1% | 1004.1 hPa | 0.51 mm | - | 347 W/m² | - |
| 1778058071 | 12.22° C | 1% | 1004.1 hPa | 0.51 mm | - | 190 W/m² | - |
| 1778055670 | 11.67° C | 1% | 1003.9 hPa | 0.76 mm | - | 54 W/m² | - |
| 1778055070 | 11.67° C | 1% | 1003.9 hPa | 0.51 mm | - | 86 W/m² | - |
| 1778053870 | 11.67° C | 1% | 1003.7 hPa | 0.51 mm | - | 88 W/m² | - |
| 1778053270 | 11.67° C | 1% | 1003.7 hPa | 0.76 mm | - | 144 W/m² | - |
| 1778052670 | 11.67° C | 1% | 1003.7 hPa | 0.51 mm | - | 104 W/m² | - |
| 1778052070 | 11.67° C | 1% | 1003.7 hPa | 0.51 mm | - | 83 W/m² | - |
| 1778050270 | 11.11° C | 1% | 1003.7 hPa | 0.25 mm | - | 99 W/m² | - |
| 1778046074 | 11.11° C | 1% | 1003.6 hPa | 0 mm | - | 32 W/m² | - |
| 1778044874 | 11.11° C | 1% | 1003.5 hPa | 0.25 mm | - | 28 W/m² | - |
| 1778043073 | 11.11° C | 1% | 1003.8 hPa | 0.25 mm | - | 10 W/m² | - |
* Rain latest hour (hover to see other rain measurements)
** Current wind speed in m/s (hover to see current wind gust speed)